sensor_id;sensor_type;location;lat;lon;timestamp;pressure;altitude;pressure_sealevel;temperature;humidity
48053;BME280;33824;51.600;5.718;2023-08-24T00:02:06;101615.69;;;19.13;92.87
48053;BME280;33824;51.600;5.718;2023-08-24T00:04:32;101625.66;;;19.12;92.98
48053;BME280;33824;51.600;5.718;2023-08-24T00:06:59;101630.22;;;19.12;92.98
48053;BME280;33824;51.600;5.718;2023-08-24T00:09:25;101623.16;;;19.11;93.30
48053;BME280;33824;51.600;5.718;2023-08-24T00:11:50;101612.56;;;19.09;93.43
48053;BME280;33824;51.600;5.718;2023-08-24T00:14:16;101607.16;;;19.09;93.60
48053;BME280;33824;51.600;5.718;2023-08-24T00:16:42;101612.56;;;19.09;93.22
48053;BME280;33824;51.600;5.718;2023-08-24T00:19:08;101609.63;;;19.11;93.43
48053;BME280;33824;51.600;5.718;2023-08-24T00:21:33;101604.22;;;19.11;93.72
48053;BME280;33824;51.600;5.718;2023-08-24T00:23:59;101601.75;;;19.09;93.76
48053;BME280;33824;51.600;5.718;2023-08-24T00:26:25;101606.72;;;19.12;93.72
48053;BME280;33824;51.600;5.718;2023-08-24T00:28:51;101607.34;;;19.14;93.53
48053;BME280;33824;51.600;5.718;2023-08-24T00:31:16;101605.28;;;19.16;93.56
48053;BME280;33824;51.600;5.718;2023-08-24T00:33:42;101622.09;;;19.18;93.61
48053;BME280;33824;51.600;5.718;2023-08-24T00:36:07;101613.78;;;19.20;93.51
48053;BME280;33824;51.600;5.718;2023-08-24T00:38:33;101609.59;;;19.17;93.06
48053;BME280;33824;51.600;5.718;2023-08-24T00:40:59;101612.13;;;19.19;93.51
48053;BME280;33824;51.600;5.718;2023-08-24T00:43:26;101602.13;;;19.20;93.15
48053;BME280;33824;51.600;5.718;2023-08-24T00:45:53;101608.16;;;19.22;93.25
48053;BME280;33824;51.600;5.718;2023-08-24T00:48:20;101602.53;;;19.23;93.28
48053;BME280;33824;51.600;5.718;2023-08-24T00:50:52;101602.75;;;19.22;93.14
48053;BME280;33824;51.600;5.718;2023-08-24T00:53:19;101609.41;;;19.19;93.13
48053;BME280;33824;51.600;5.718;2023-08-24T00:55:45;101607.75;;;19.18;92.88
48053;BME280;33824;51.600;5.718;2023-08-24T00:58:11;101601.94;;;19.14;93.07
48053;BME280;33824;51.600;5.718;2023-08-24T01:00:37;101601.75;;;19.09;93.54
48053;BME280;33824;51.600;5.718;2023-08-24T01:03:03;101582.00;;;19.02;93.92
48053;BME280;33824;51.600;5.718;2023-08-24T01:05:29;101585.56;;;18.96;94.02
48053;BME280;33824;51.600;5.718;2023-08-24T01:07:55;101578.50;;;18.89;93.90
48053;BME280;33824;51.600;5.718;2023-08-24T01:10:21;101587.84;;;18.80;94.40
48053;BME280;33824;51.600;5.718;2023-08-24T01:13:06;101597.66;;;18.67;94.52
48053;BME280;33824;51.600;5.718;2023-08-24T01:15:38;101597.84;;;18.79;94.74
48053;BME280;33824;51.600;5.718;2023-08-24T01:18:11;101597.63;;;18.87;94.71
48053;BME280;33824;51.600;5.718;2023-08-24T01:20:45;101600.31;;;18.87;94.59
48053;BME280;33824;51.600;5.718;2023-08-24T01:23:46;101587.69;;;18.75;95.20
48053;BME280;33824;51.600;5.718;2023-08-24T01:26:16;101582.88;;;18.50;95.50
48053;BME280;33824;51.600;5.718;2023-08-24T01:28:44;101589.13;;;18.71;95.31
48053;BME280;33824;51.600;5.718;2023-08-24T01:31:09;101587.25;;;18.78;95.13
48053;BME280;33824;51.600;5.718;2023-08-24T01:33:35;101590.34;;;18.81;95.05
48053;BME280;33824;51.600;5.718;2023-08-24T01:36:01;101588.06;;;18.85;95.11
48053;BME280;33824;51.600;5.718;2023-08-24T01:38:27;101587.44;;;18.89;94.98
48053;BME280;33824;51.600;5.718;2023-08-24T01:43:46;101570.41;;;18.89;95.34
48053;BME280;33824;51.600;5.718;2023-08-24T01:46:16;101568.09;;;18.92;95.58
48053;BME280;33824;51.600;5.718;2023-08-24T01:48:44;101573.47;;;18.99;95.51
48053;BME280;33824;51.600;5.718;2023-08-24T01:51:10;101574.31;;;19.06;95.48
48053;BME280;33824;51.600;5.718;2023-08-24T01:53:36;101570.97;;;19.10;95.80
48053;BME280;33824;51.600;5.718;2023-08-24T01:56:13;101564.31;;;19.06;95.69
48053;BME280;33824;51.600;5.718;2023-08-24T01:58:41;101575.09;;;19.20;95.23
48053;BME280;33824;51.600;5.718;2023-08-24T02:01:07;101576.38;;;19.17;95.47
48053;BME280;33824;51.600;5.718;2023-08-24T02:03:34;101575.53;;;19.16;95.07
48053;BME280;33824;51.600;5.718;2023-08-24T02:05:59;101575.53;;;19.16;95.09
48053;BME280;33824;51.600;5.718;2023-08-24T02:08:25;101571.75;;;19.17;95.45
48053;BME280;33824;51.600;5.718;2023-08-24T02:10:51;101583.81;;;19.22;95.40
48053;BME280;33824;51.600;5.718;2023-08-24T02:13:16;101581.50;;;19.25;95.11
48053;BME280;33824;51.600;5.718;2023-08-24T02:15:42;101585.88;;;19.26;94.98
48053;BME280;33824;51.600;5.718;2023-08-24T02:18:07;101585.28;;;19.24;95.17
48053;BME280;33824;51.600;5.718;2023-08-24T02:20:37;101587.38;;;19.15;95.01
48053;BME280;33824;51.600;5.718;2023-08-24T02:23:04;101579.66;;;19.19;95.22
48053;BME280;33824;51.600;5.718;2023-08-24T02:25:29;101583.81;;;19.28;95.46
48053;BME280;33824;51.600;5.718;2023-08-24T02:27:55;101571.09;;;19.35;95.51
48053;BME280;33824;51.600;5.718;2023-08-24T02:30:21;101550.91;;;19.38;95.25
48053;BME280;33824;51.600;5.718;2023-08-24T02:32:47;101551.94;;;19.37;95.01
48053;BME280;33824;51.600;5.718;2023-08-24T02:35:12;101565.06;;;19.33;94.96
48053;BME280;33824;51.600;5.718;2023-08-24T02:37:38;101575.03;;;19.33;95.21
48053;BME280;33824;51.600;5.718;2023-08-24T02:40:03;101572.78;;;19.30;95.99
48053;BME280;33824;51.600;5.718;2023-08-24T02:42:33;101563.66;;;19.24;95.70
48053;BME280;33824;51.600;5.718;2023-08-24T02:44:58;101566.34;;;19.24;96.08
48053;BME280;33824;51.600;5.718;2023-08-24T02:47:24;101573.22;;;19.20;96.61
48053;BME280;33824;51.600;5.718;2023-08-24T02:49:50;101569.06;;;19.24;96.77
48053;BME280;33824;51.600;5.718;2023-08-24T02:52:15;101561.78;;;19.25;96.70
48053;BME280;33824;51.600;5.718;2023-08-24T02:54:41;101547.84;;;19.28;96.75
48053;BME280;33824;51.600;5.718;2023-08-24T02:57:07;101538.03;;;19.33;97.05
48053;BME280;33824;51.600;5.718;2023-08-24T02:59:32;101530.94;;;19.39;96.41
48053;BME280;33824;51.600;5.718;2023-08-24T03:01:58;101523.41;;;19.41;96.07
48053;BME280;33824;51.600;5.718;2023-08-24T03:04:24;101525.75;;;19.44;96.63
48053;BME280;33824;51.600;5.718;2023-08-24T03:06:49;101520.94;;;19.46;96.49
48053;BME280;33824;51.600;5.718;2023-08-24T03:09:15;101515.75;;;19.44;96.43
48053;BME280;33824;51.600;5.718;2023-08-24T03:11:41;101500.56;;;19.43;96.12
48053;BME280;33824;51.600;5.718;2023-08-24T03:14:06;101498.47;;;19.39;96.62
48053;BME280;33824;51.600;5.718;2023-08-24T03:16:32;101496.22;;;19.36;96.96
48053;BME280;33824;51.600;5.718;2023-08-24T03:18:58;101494.75;;;19.33;97.24
48053;BME280;33824;51.600;5.718;2023-08-24T03:21:24;101476.25;;;19.30;97.41
48053;BME280;33824;51.600;5.718;2023-08-24T03:23:49;101446.56;;;19.24;98.27
48053;BME280;33824;51.600;5.718;2023-08-24T03:26:15;101432.66;;;19.20;98.56
48053;BME280;33824;51.600;5.718;2023-08-24T03:28:42;101426.63;;;19.18;98.79
48053;BME280;33824;51.600;5.718;2023-08-24T03:31:08;101426.22;;;19.14;99.72
48053;BME280;33824;51.600;5.718;2023-08-24T03:33:33;101416.69;;;19.12;99.92
48053;BME280;33824;51.600;5.718;2023-08-24T03:36:01;101406.06;;;19.10;100.00
48053;BME280;33824;51.600;5.718;2023-08-24T03:38:27;101419.59;;;19.10;100.00
48053;BME280;33824;51.600;5.718;2023-08-24T03:41:02;101408.38;;;19.07;100.00
48053;BME280;33824;51.600;5.718;2023-08-24T03:43:32;101400.91;;;19.09;100.00
48053;BME280;33824;51.600;5.718;2023-08-24T03:45:59;101399.19;;;19.14;100.00
48053;BME280;33824;51.600;5.718;2023-08-24T03:48:24;101388.78;;;19.18;100.00
48053;BME280;33824;51.600;5.718;2023-08-24T03:50:53;101385.25;;;19.17;100.00
48053;BME280;33824;51.600;5.718;2023-08-24T03:53:19;101393.53;;;19.23;100.00
48053;BME280;33824;51.600;5.718;2023-08-24T03:55:47;101381.44;;;19.25;100.00
48053;BME280;33824;51.600;5.718;2023-08-24T03:58:14;101386.44;;;19.28;100.00
48053;BME280;33824;51.600;5.718;2023-08-24T04:00:39;101385.38;;;19.29;100.00
48053;BME280;33824;51.600;5.718;2023-08-24T04:03:07;101385.56;;;19.34;100.00
48053;BME280;33824;51.600;5.718;2023-08-24T04:05:33;101392.84;;;19.34;100.00
48053;BME280;33824;51.600;5.718;2023-08-24T04:07:59;101396.38;;;19.34;100.00
48053;BME280;33824;51.600;5.718;2023-08-24T04:10:31;101394.16;;;19.25;100.00
48053;BME280;33824;51.600;5.718;2023-08-24T04:12:57;101402.47;;;19.23;100.00
48053;BME280;33824;51.600;5.718;2023-08-24T04:15:23;101416.47;;;19.13;100.00
48053;BME280;33824;51.600;5.718;2023-08-24T04:17:49;101412.31;;;19.11;100.00
48053;BME280;33824;51.600;5.718;2023-08-24T04:20:15;101417.94;;;19.09;100.00
48053;BME280;33824;51.600;5.718;2023-08-24T04:22:41;101416.28;;;19.08;100.00
48053;BME280;33824;51.600;5.718;2023-08-24T04:25:08;101412.75;;;19.08;100.00
48053;BME280;33824;51.600;5.718;2023-08-24T04:27:33;101408.19;;;19.08;100.00
48053;BME280;33824;51.600;5.718;2023-08-24T04:29:59;101398.84;;;19.04;100.00
48053;BME280;33824;51.600;5.718;2023-08-24T04:32:26;101411.53;;;19.04;100.00
48053;BME280;33824;51.600;5.718;2023-08-24T04:34:53;101412.78;;;19.01;100.00
48053;BME280;33824;51.600;5.718;2023-08-24T04:37:18;101422.13;;;18.99;100.00
48053;BME280;33824;51.600;5.718;2023-08-24T04:39:44;101423.41;;;18.96;100.00
48053;BME280;33824;51.600;5.718;2023-08-24T04:42:10;101418.00;;;18.96;100.00
48053;BME280;33824;51.600;5.718;2023-08-24T04:44:35;101420.91;;;18.95;100.00
48053;BME280;33824;51.600;5.718;2023-08-24T04:47:01;101416.13;;;18.97;100.00
48053;BME280;33824;51.600;5.718;2023-08-24T04:49:27;101413.81;;;19.00;100.00
48053;BME280;33824;51.600;5.718;2023-08-24T04:51:53;101417.56;;;19.06;100.00
48053;BME280;33824;51.600;5.718;2023-08-24T04:54:19;101421.69;;;19.08;100.00
48053;BME280;33824;51.600;5.718;2023-08-24T04:56:45;101406.91;;;19.11;100.00
48053;BME280;33824;51.600;5.718;2023-08-24T04:59:10;101409.16;;;19.14;100.00
48053;BME280;33824;51.600;5.718;2023-08-24T05:01:36;101411.47;;;19.17;100.00
48053;BME280;33824;51.600;5.718;2023-08-24T05:04:02;101416.19;;;19.22;100.00
48053;BME280;33824;51.600;5.718;2023-08-24T05:06:28;101399.78;;;19.23;100.00
48053;BME280;33824;51.600;5.718;2023-08-24T05:08:54;101401.19;;;19.26;100.00
48053;BME280;33824;51.600;5.718;2023-08-24T05:11:23;101402.47;;;19.23;100.00
48053;BME280;33824;51.600;5.718;2023-08-24T05:13:51;101398.94;;;19.23;100.00
48053;BME280;33824;51.600;5.718;2023-08-24T05:16:17;101399.97;;;19.22;100.00
48053;BME280;33824;51.600;5.718;2023-08-24T05:18:43;101401.88;;;19.21;100.00
48053;BME280;33824;51.600;5.718;2023-08-24T05:21:08;101411.03;;;19.20;100.00
48053;BME280;33824;51.600;5.718;2023-08-24T05:23:34;101409.56;;;19.17;100.00
48053;BME280;33824;51.600;5.718;2023-08-24T05:26:01;101412.72;;;19.14;100.00
48053;BME280;33824;51.600;5.718;2023-08-24T05:28:28;101413.94;;;19.18;100.00
48053;BME280;33824;51.600;5.718;2023-08-24T05:30:54;101406.59;;;19.26;100.00
48053;BME280;33824;51.600;5.718;2023-08-24T05:33:21;101413.63;;;19.33;100.00
48053;BME280;33824;51.600;5.718;2023-08-24T05:35:48;101417.56;;;19.44;100.00
48053;BME280;33824;51.600;5.718;2023-08-24T05:38:15;101415.59;;;19.57;100.00
48053;BME280;33824;51.600;5.718;2023-08-24T05:40:46;101406.97;;;19.67;100.00
48053;BME280;33824;51.600;5.718;2023-08-24T05:43:12;101401.69;;;19.79;100.00
48053;BME280;33824;51.600;5.718;2023-08-24T05:45:38;101401.78;;;19.90;100.00
48053;BME280;33824;51.600;5.718;2023-08-24T05:48:10;101395.88;;;20.00;100.00
48053;BME280;33824;51.600;5.718;2023-08-24T05:50:35;101389.13;;;20.09;100.00
48053;BME280;33824;51.600;5.718;2023-08-24T05:53:03;101386.13;;;20.17;100.00
48053;BME280;33824;51.600;5.718;2023-08-24T05:55:28;101383.97;;;20.26;100.00
48053;BME280;33824;51.600;5.718;2023-08-24T05:57:54;101381.00;;;20.34;100.00
48053;BME280;33824;51.600;5.718;2023-08-24T06:00:20;101373.41;;;20.42;100.00
48053;BME280;33824;51.600;5.718;2023-08-24T06:02:47;101365.19;;;20.49;100.00
48053;BME280;33824;51.600;5.718;2023-08-24T06:05:13;101355.72;;;20.58;100.00
48053;BME280;33824;51.600;5.718;2023-08-24T06:07:38;101356.69;;;20.64;100.00
48053;BME280;33824;51.600;5.718;2023-08-24T06:10:04;101353.28;;;20.68;100.00
48053;BME280;33824;51.600;5.718;2023-08-24T06:12:31;101340.84;;;20.79;100.00
48053;BME280;33824;51.600;5.718;2023-08-24T06:14:56;101336.63;;;20.83;100.00
48053;BME280;33824;51.600;5.718;2023-08-24T06:17:22;101322.28;;;20.94;100.00
48053;BME280;33824;51.600;5.718;2023-08-24T06:19:47;101324.31;;;20.98;100.00
48053;BME280;33824;51.600;5.718;2023-08-24T06:22:13;101318.09;;;21.10;100.00
48053;BME280;33824;51.600;5.718;2023-08-24T06:24:38;101308.00;;;21.17;99.66
48053;BME280;33824;51.600;5.718;2023-08-24T06:27:04;101309.56;;;21.36;99.86
48053;BME280;33824;51.600;5.718;2023-08-24T06:29:30;101298.38;;;21.44;98.19
48053;BME280;33824;51.600;5.718;2023-08-24T06:31:55;101300.41;;;21.48;97.99
48053;BME280;33824;51.600;5.718;2023-08-24T06:34:21;101308.78;;;21.59;97.89
48053;BME280;33824;51.600;5.718;2023-08-24T06:36:47;101314.81;;;21.72;97.27
48053;BME280;33824;51.600;5.718;2023-08-24T06:39:13;101330.50;;;21.82;96.30
48053;BME280;33824;51.600;5.718;2023-08-24T06:41:39;101328.03;;;21.92;95.33
48053;BME280;33824;51.600;5.718;2023-08-24T06:44:04;101333.72;;;22.02;94.54
48053;BME280;33824;51.600;5.718;2023-08-24T06:46:31;101333.22;;;22.17;94.16
48053;BME280;33824;51.600;5.718;2023-08-24T06:48:56;101331.06;;;22.30;93.10
48053;BME280;33824;51.600;5.718;2023-08-24T06:51:22;101331.03;;;22.42;91.79
48053;BME280;33824;51.600;5.718;2023-08-24T06:53:47;101334.31;;;22.56;92.17
48053;BME280;33824;51.600;5.718;2023-08-24T06:56:14;101330.63;;;22.73;91.18
48053;BME280;33824;51.600;5.718;2023-08-24T06:58:40;101321.09;;;22.87;90.44
48053;BME280;33824;51.600;5.718;2023-08-24T07:01:06;101322.94;;;22.99;89.13
48053;BME280;33824;51.600;5.718;2023-08-24T07:05:59;101316.53;;;23.21;88.04
48053;BME280;33824;51.600;5.718;2023-08-24T07:08:24;101311.34;;;23.36;86.95
48053;BME280;33824;51.600;5.718;2023-08-24T07:10:50;101304.47;;;23.46;87.23
48053;BME280;33824;51.600;5.718;2023-08-24T07:13:16;101316.09;;;23.58;85.90
48053;BME280;33824;51.600;5.718;2023-08-24T07:15:42;101313.59;;;23.73;85.69
48053;BME280;33824;51.600;5.718;2023-08-24T07:18:07;101307.78;;;23.86;84.17
48053;BME280;33824;51.600;5.718;2023-08-24T07:20:35;101303.81;;;23.94;84.00
48053;BME280;33824;51.600;5.718;2023-08-24T07:23:01;101304.50;;;24.01;84.29
48053;BME280;33824;51.600;5.718;2023-08-24T07:25:27;101311.13;;;24.10;82.48
48053;BME280;33824;51.600;5.718;2023-08-24T07:27:56;101307.56;;;24.26;82.32
48053;BME280;33824;51.600;5.718;2023-08-24T07:30:25;101302.00;;;24.38;81.51
48053;BME280;33824;51.600;5.718;2023-08-24T07:32:52;101298.50;;;24.42;80.95
48053;BME280;33824;51.600;5.718;2023-08-24T07:35:18;101296.72;;;24.53;80.45
48053;BME280;33824;51.600;5.718;2023-08-24T07:37:47;101298.25;;;24.65;79.54
48053;BME280;33824;51.600;5.718;2023-08-24T07:40:14;101292.06;;;24.75;79.53
48053;BME280;33824;51.600;5.718;2023-08-24T07:42:49;101280.25;;;24.91;78.53
48053;BME280;33824;51.600;5.718;2023-08-24T07:45:16;101284.97;;;25.01;77.68
48053;BME280;33824;51.600;5.718;2023-08-24T07:47:42;101284.03;;;25.17;77.88
48053;BME280;33824;51.600;5.718;2023-08-24T07:50:09;101292.31;;;25.27;77.50
48053;BME280;33824;51.600;5.718;2023-08-24T07:52:39;101284.41;;;25.30;76.09
48053;BME280;33824;51.600;5.718;2023-08-24T07:55:05;101288.63;;;25.43;75.42
48053;BME280;33824;51.600;5.718;2023-08-24T07:57:35;101278.09;;;25.57;74.68
48053;BME280;33824;51.600;5.718;2023-08-24T08:00:03;101277.34;;;25.66;74.81
48053;BME280;33824;51.600;5.718;2023-08-24T08:02:29;101273.34;;;25.84;74.98
48053;BME280;33824;51.600;5.718;2023-08-24T08:04:59;101266.56;;;25.92;74.16
48053;BME280;33824;51.600;5.718;2023-08-24T08:07:25;101266.34;;;26.03;74.63
48053;BME280;33824;51.600;5.718;2023-08-24T08:09:51;101263.09;;;26.11;74.09
48053;BME280;33824;51.600;5.718;2023-08-24T08:12:17;101270.81;;;26.19;73.36
48053;BME280;33824;51.600;5.718;2023-08-24T08:14:42;101267.00;;;26.25;72.95
48053;BME280;33824;51.600;5.718;2023-08-24T08:17:08;101263.50;;;26.35;72.08
48053;BME280;33824;51.600;5.718;2023-08-24T08:19:33;101259.44;;;26.43;71.63
48053;BME280;33824;51.600;5.718;2023-08-24T08:22:01;101264.09;;;26.52;71.83
48053;BME280;33824;51.600;5.718;2023-08-24T08:24:27;101265.25;;;26.66;71.02
48053;BME280;33824;51.600;5.718;2023-08-24T08:26:52;101261.44;;;26.78;69.94
48053;BME280;33824;51.600;5.718;2023-08-24T08:29:18;101260.38;;;26.89;71.49
48053;BME280;33824;51.600;5.718;2023-08-24T08:31:43;101270.78;;;27.07;70.21
48053;BME280;33824;51.600;5.718;2023-08-24T08:34:09;101265.03;;;27.34;69.62
48053;BME280;33824;51.600;5.718;2023-08-24T08:36:34;101264.75;;;27.40;69.06
48053;BME280;33824;51.600;5.718;2023-08-24T08:39:00;101263.16;;;27.54;68.08
48053;BME280;33824;51.600;5.718;2023-08-24T08:41:30;101265.59;;;27.61;66.51
48053;BME280;33824;51.600;5.718;2023-08-24T08:43:57;101244.19;;;27.68;66.19
48053;BME280;33824;51.600;5.718;2023-08-24T08:46:22;101237.34;;;27.71;66.18
48053;BME280;33824;51.600;5.718;2023-08-24T08:48:51;101226.97;;;27.57;66.34
48053;BME280;33824;51.600;5.718;2023-08-24T08:51:18;101226.16;;;27.62;66.04
48053;BME280;33824;51.600;5.718;2023-08-24T08:53:44;101220.91;;;27.71;66.87
48053;BME280;33824;51.600;5.718;2023-08-24T08:56:09;101222.28;;;27.73;66.79
48053;BME280;33824;51.600;5.718;2023-08-24T08:58:36;101209.09;;;27.80;66.98
48053;BME280;33824;51.600;5.718;2023-08-24T09:01:04;101188.81;;;27.81;66.88
48053;BME280;33824;51.600;5.718;2023-08-24T09:03:31;101192.94;;;27.79;66.57
48053;BME280;33824;51.600;5.718;2023-08-24T09:05:58;101177.88;;;27.71;66.63
48053;BME280;33824;51.600;5.718;2023-08-24T09:08:25;101172.41;;;27.71;66.56
48053;BME280;33824;51.600;5.718;2023-08-24T09:10:50;101163.09;;;27.77;66.73
48053;BME280;33824;51.600;5.718;2023-08-24T09:13:17;101152.91;;;27.83;67.13
48053;BME280;33824;51.600;5.718;2023-08-24T09:15:43;101156.19;;;27.85;66.79
48053;BME280;33824;51.600;5.718;2023-08-24T09:18:09;101150.41;;;27.86;66.74
48053;BME280;33824;51.600;5.718;2023-08-24T09:20:34;101136.63;;;28.01;66.89
48053;BME280;33824;51.600;5.718;2023-08-24T09:23:00;101131.00;;;27.78;67.11
48053;BME280;33824;51.600;5.718;2023-08-24T09:25:25;101122.25;;;27.81;66.64
48053;BME280;33824;51.600;5.718;2023-08-24T09:28:01;101122.44;;;27.89;66.85
48053;BME280;33824;51.600;5.718;2023-08-24T09:30:34;101116.13;;;27.94;66.08
48053;BME280;33824;51.600;5.718;2023-08-24T09:33:10;101111.56;;;27.74;66.71
48053;BME280;33824;51.600;5.718;2023-08-24T09:35:36;101104.59;;;27.97;66.81
48053;BME280;33824;51.600;5.718;2023-08-24T09:38:21;101099.19;;;27.87;65.56
48053;BME280;33824;51.600;5.718;2023-08-24T09:40:50;101103.19;;;28.04;66.01
48053;BME280;33824;51.600;5.718;2023-08-24T09:43:17;101105.00;;;28.24;66.03
48053;BME280;33824;51.600;5.718;2023-08-24T09:45:52;101118.09;;;28.32;64.59
48053;BME280;33824;51.600;5.718;2023-08-24T09:48:19;101137.66;;;28.59;65.34
48053;BME280;33824;51.600;5.718;2023-08-24T09:50:46;101153.88;;;28.56;65.59
48053;BME280;33824;51.600;5.718;2023-08-24T09:55:44;101172.50;;;28.98;63.25
48053;BME280;33824;51.600;5.718;2023-08-24T09:58:14;101174.16;;;28.60;65.73
48053;BME280;33824;51.600;5.718;2023-08-24T10:00:40;101166.91;;;28.74;65.31
48053;BME280;33824;51.600;5.718;2023-08-24T10:03:08;101161.19;;;28.71;65.42
48053;BME280;33824;51.600;5.718;2023-08-24T10:05:34;101159.00;;;28.68;65.62
48053;BME280;33824;51.600;5.718;2023-08-24T10:08:00;101156.34;;;28.91;66.03
48053;BME280;33824;51.600;5.718;2023-08-24T10:10:27;101158.69;;;29.03;65.29
48053;BME280;33824;51.600;5.718;2023-08-24T10:13:02;101154.91;;;28.99;64.88
48053;BME280;33824;51.600;5.718;2023-08-24T10:15:30;101154.59;;;29.00;64.11
48053;BME280;33824;51.600;5.718;2023-08-24T10:17:58;101157.59;;;29.04;65.36
48053;BME280;33824;51.600;5.718;2023-08-24T10:20:26;101166.88;;;29.08;64.95
48053;BME280;33824;51.600;5.718;2023-08-24T10:22:52;101163.00;;;29.14;65.29
48053;BME280;33824;51.600;5.718;2023-08-24T10:25:18;101159.00;;;29.30;65.06
48053;BME280;33824;51.600;5.718;2023-08-24T10:27:45;101149.31;;;29.38;64.04
48053;BME280;33824;51.600;5.718;2023-08-24T10:30:12;101148.56;;;29.32;63.79
48053;BME280;33824;51.600;5.718;2023-08-24T10:32:40;101144.75;;;29.28;64.76
48053;BME280;33824;51.600;5.718;2023-08-24T10:35:06;101132.13;;;29.22;64.27
48053;BME280;33824;51.600;5.718;2023-08-24T10:37:32;101133.31;;;29.16;64.07
48053;BME280;33824;51.600;5.718;2023-08-24T10:39:59;101138.28;;;29.14;64.77
48053;BME280;33824;51.600;5.718;2023-08-24T10:42:25;101139.44;;;29.08;65.51
48053;BME280;33824;51.600;5.718;2023-08-24T10:44:52;101137.47;;;29.14;65.94
48053;BME280;33824;51.600;5.718;2023-08-24T10:47:18;101136.41;;;29.10;65.90
48053;BME280;33824;51.600;5.718;2023-08-24T10:49:56;101142.50;;;29.06;66.57
48053;BME280;33824;51.600;5.718;2023-08-24T10:52:30;101155.28;;;28.87;64.30
48053;BME280;33824;51.600;5.718;2023-08-24T10:55:00;101163.53;;;28.87;64.75
48053;BME280;33824;51.600;5.718;2023-08-24T10:57:34;101170.13;;;28.86;64.51
48053;BME280;33824;51.600;5.718;2023-08-24T11:00:06;101176.81;;;28.75;64.94
48053;BME280;33824;51.600;5.718;2023-08-24T11:02:50;101174.41;;;28.58;65.60
48053;BME280;33824;51.600;5.718;2023-08-24T11:07:56;101178.16;;;28.78;65.66
48053;BME280;33824;51.600;5.718;2023-08-24T11:10:24;101166.66;;;28.76;65.39
48053;BME280;33824;51.600;5.718;2023-08-24T11:13:07;101151.34;;;28.65;65.98
48053;BME280;33824;51.600;5.718;2023-08-24T11:15:36;101128.41;;;28.84;64.86
48053;BME280;33824;51.600;5.718;2023-08-24T11:18:25;101132.81;;;28.80;65.77
48053;BME280;33824;51.600;5.718;2023-08-24T11:21:03;101147.16;;;29.06;64.83
48053;BME280;33824;51.600;5.718;2023-08-24T11:23:29;101148.47;;;29.37;66.05
48053;BME280;33824;51.600;5.718;2023-08-24T11:25:57;101148.25;;;29.58;64.15
48053;BME280;33824;51.600;5.718;2023-08-24T11:28:27;101142.81;;;29.76;64.45
48053;BME280;33824;51.600;5.718;2023-08-24T11:30:54;101140.38;;;29.75;63.16
48053;BME280;33824;51.600;5.718;2023-08-24T11:33:33;101130.09;;;29.80;62.88
48053;BME280;33824;51.600;5.718;2023-08-24T11:35:59;101132.84;;;29.85;64.02
48053;BME280;33824;51.600;5.718;2023-08-24T11:38:35;101130.50;;;29.50;63.74
48053;BME280;33824;51.600;5.718;2023-08-24T11:41:23;101116.56;;;29.18;62.52
48053;BME280;33824;51.600;5.718;2023-08-24T11:43:49;101096.38;;;29.32;63.52
48053;BME280;33824;51.600;5.718;2023-08-24T11:46:23;101090.06;;;29.32;62.94
48053;BME280;33824;51.600;5.718;2023-08-24T11:48:48;101086.53;;;29.50;63.67
48053;BME280;33824;51.600;5.718;2023-08-24T11:51:14;101068.06;;;29.56;62.87
48053;BME280;33824;51.600;5.718;2023-08-24T11:53:40;101068.19;;;29.45;64.00
48053;BME280;33824;51.600;5.718;2023-08-24T11:56:08;101060.84;;;29.41;63.61
48053;BME280;33824;51.600;5.718;2023-08-24T11:58:34;101064.41;;;29.18;64.45
48053;BME280;33824;51.600;5.718;2023-08-24T12:01:00;101047.03;;;28.98;64.04
48053;BME280;33824;51.600;5.718;2023-08-24T12:03:26;101033.59;;;28.97;64.68
48053;BME280;33824;51.600;5.718;2023-08-24T12:05:51;101026.75;;;28.94;65.32
48053;BME280;33824;51.600;5.718;2023-08-24T12:08:17;101020.69;;;28.97;65.20
48053;BME280;33824;51.600;5.718;2023-08-24T12:10:42;101005.44;;;29.10;64.97
48053;BME280;33824;51.600;5.718;2023-08-24T12:13:08;100996.31;;;29.15;64.83
48053;BME280;33824;51.600;5.718;2023-08-24T12:15:36;100993.22;;;29.21;64.60
48053;BME280;33824;51.600;5.718;2023-08-24T12:18:12;100986.84;;;29.26;64.33
48053;BME280;33824;51.600;5.718;2023-08-24T12:20:37;100977.47;;;29.50;64.66
48053;BME280;33824;51.600;5.718;2023-08-24T12:23:04;100980.94;;;29.37;63.78
48053;BME280;33824;51.600;5.718;2023-08-24T12:25:30;100986.16;;;29.39;63.47
48053;BME280;33824;51.600;5.718;2023-08-24T12:28:09;100984.50;;;29.38;64.36
48053;BME280;33824;51.600;5.718;2023-08-24T12:30:48;100986.59;;;29.46;63.63
48053;BME280;33824;51.600;5.718;2023-08-24T12:33:25;100989.56;;;29.49;65.21
48053;BME280;33824;51.600;5.718;2023-08-24T12:35:52;100988.63;;;29.59;63.54
48053;BME280;33824;51.600;5.718;2023-08-24T12:38:18;100955.50;;;29.50;64.24
48053;BME280;33824;51.600;5.718;2023-08-24T12:40:43;100953.84;;;29.49;63.60
48053;BME280;33824;51.600;5.718;2023-08-24T12:43:09;100954.28;;;29.57;63.91
48053;BME280;33824;51.600;5.718;2023-08-24T12:45:34;100971.53;;;29.43;63.83
48053;BME280;33824;51.600;5.718;2023-08-24T12:48:01;100990.22;;;29.41;63.45
48053;BME280;33824;51.600;5.718;2023-08-24T12:50:27;100998.47;;;29.41;64.89
48053;BME280;33824;51.600;5.718;2023-08-24T12:52:52;101008.13;;;29.39;64.62
48053;BME280;33824;51.600;5.718;2023-08-24T12:55:21;101016.19;;;29.30;65.12
48053;BME280;33824;51.600;5.718;2023-08-24T12:57:47;101019.00;;;29.25;65.44
48053;BME280;33824;51.600;5.718;2023-08-24T13:00:14;101014.56;;;29.05;65.48